Time;durP1;ratioP1;P1;durP2;ratioP2;P2;SDS_P1;SDS_P2;PMS_P1;PMS_P2;Temp;Humidity;BMP_temperature;BMP_pressure;BME280_temperature;BME280_humidity;BME280_pressure;Samples;Min_cycle;Max_cycle;Signal;HPM_P1;HPM_P2
2023/03/28 00:01:12;;;;;;;31.20;19.50;;;;;;;0.08;56.44;100070.97;110432;1264;21964;-76
2023/03/28 00:03:56;;;;;;;31.10;18.20;;;;;;;0.10;56.61;100066.52;110431;1264;22747;-80
2023/03/28 00:06:37;;;;;;;32.10;18.50;;;;;;;0.12;56.70;100062.59;110419;1264;21957;-80
2023/03/28 00:09:17;;;;;;;30.70;18.60;;;;;;;0.13;56.91;100057.80;110483;1264;22984;-76
2023/03/28 00:12:02;;;;;;;32.90;19.40;;;;;;;0.15;56.95;100055.06;110388;1263;22785;-76
2023/03/28 00:14:55;;;;;;;32.60;18.60;;;;;;;0.14;57.18;100055.91;110682;1259;21972;-77
2023/03/28 00:17:40;;;;;;;28.50;18.20;;;;;;;0.13;57.40;100051.80;110762;1259;23043;-75
2023/03/28 00:20:14;;;;;;;31.20;20.00;;;;;;;0.14;57.54;100052.65;111219;1240;23010;-76
2023/03/28 00:22:53;;;;;;;31.20;19.60;;;;;;;0.16;57.69;100057.45;110680;1260;22144;-75
2023/03/28 00:25:38;;;;;;;33.70;17.90;;;;;;;0.19;57.93;100055.05;110720;1261;23021;-75
2023/03/28 00:28:17;;;;;;;32.50;17.40;;;;;;;0.20;58.12;100051.98;110520;1257;23759;-76
2023/03/28 00:31:08;;;;;;;26.10;15.00;;;;;;;0.20;58.23;100051.80;110506;1260;21958;-76
2023/03/28 00:33:47;;;;;;;25.80;15.40;;;;;;;0.21;58.33;100050.27;110158;1266;22910;-77
2023/03/28 00:36:28;;;;;;;24.80;14.30;;;;;;;0.22;58.42;100050.95;109932;1267;22442;-75
2023/03/28 00:39:05;;;;;;;22.00;12.60;;;;;;;0.20;58.80;100050.09;110136;1254;23036;-76
2023/03/28 00:41:43;;;;;;;23.70;13.10;;;;;;;0.19;59.15;100053.35;110141;1267;21986;-77
2023/03/28 00:44:41;;;;;;;15.60;10.30;;;;;;;0.19;59.36;100048.71;110172;1266;23609;-76
2023/03/28 00:47:35;;;;;;;16.90;10.40;;;;;;;0.19;59.82;100048.73;109776;1266;22077;-76
2023/03/28 00:50:21;;;;;;;14.70;9.40;;;;;;;0.19;60.14;100048.38;110090;1265;23552;-77
2023/03/28 00:53:18;;;;;;;15.20;8.60;;;;;;;0.20;60.44;100048.39;110693;1260;23715;-76
2023/03/28 00:56:20;;;;;;;11.80;8.70;;;;;;;0.23;60.70;100044.97;110639;1253;22086;-77
2023/03/28 00:58:58;;;;;;;11.90;8.20;;;;;;;0.27;60.94;100041.52;109913;1267;23013;-78
2023/03/28 01:01:36;;;;;;;14.60;8.80;;;;;;;0.32;61.15;100045.29;109947;1267;23713;-76
2023/03/28 01:04:21;;;;;;;10.80;7.30;;;;;;;0.37;61.40;100041.87;109630;1264;21981;-76
2023/03/28 01:06:59;;;;;;;13.20;7.80;;;;;;;0.43;61.61;100040.83;110433;1261;23617;-78
2023/03/28 01:09:34;;;;;;;12.70;7.60;;;;;;;0.49;61.76;100042.18;110490;1260;22228;-76
2023/03/28 01:12:09;;;;;;;14.10;8.00;;;;;;;0.51;62.03;100038.93;110074;1266;23062;-77
2023/03/28 01:14:52;;;;;;;13.40;7.40;;;;;;;0.52;62.14;100038.59;110112;1266;23791;-76
2023/03/28 01:17:32;;;;;;;9.20;7.20;;;;;;;0.55;62.32;100044.41;110480;1259;21972;-76
2023/03/28 01:20:38;;;;;;;10.40;7.50;;;;;;;0.62;62.60;100040.11;110874;1259;24211;-75
2023/03/28 01:23:50;;;;;;;13.00;7.50;;;;;;;0.67;62.71;100038.55;110762;1259;23702;-77
2023/03/28 01:27:01;;;;;;;13.00;7.50;;;;;;;0.72;62.87;100034.77;110878;1259;23023;-77
2023/03/28 01:30:20;;;;;;;10.80;6.50;;;;;;;0.75;63.00;100029.80;110802;1254;22979;-78
2023/03/28 01:33:42;;;;;;;12.90;7.30;;;;;;;0.77;63.08;100028.09;111411;1254;23010;-76
2023/03/28 01:37:11;;;;;;;8.40;6.30;;;;;;;0.77;63.29;100027.05;111294;1254;22001;-78
2023/03/28 01:40:45;;;;;;;11.70;6.80;;;;;;;0.77;63.48;100018.48;111141;1254;21949;-76
2023/03/28 01:43:46;;;;;;;11.50;6.50;;;;;;;0.76;63.58;100015.06;110700;1260;23024;-76
2023/03/28 01:46:35;;;;;;;14.70;5.60;;;;;;;0.77;63.71;100012.67;110662;1256;21974;-76
2023/03/28 01:50:21;;;;;;;6.90;4.60;;;;;;;0.79;63.81;100014.38;110860;1260;22061;-79
2023/03/28 01:53:15;;;;;;;9.80;4.80;;;;;;;0.78;64.14;100012.66;110742;1260;21973;-77
2023/03/28 01:56:45;;;;;;;6.90;4.80;;;;;;;0.79;64.35;100009.58;110732;1260;21976;-76
2023/03/28 02:00:01;;;;;;;7.70;5.10;;;;;;;0.81;64.57;100009.58;108924;1261;2349629;-77
2023/03/28 02:03:21;;;;;;;10.40;5.60;;;;;;;0.82;64.82;100007.17;110571;1265;21975;-77
2023/03/28 02:06:11;;;;;;;7.30;5.60;;;;;;;0.85;64.95;100004.23;110192;1265;22995;-78
2023/03/28 02:08:56;;;;;;;8.30;4.90;;;;;;;0.89;64.98;100004.40;110504;1265;21985;-76
2023/03/28 02:11:45;;;;;;;7.60;5.00;;;;;;;0.92;65.13;100005.42;109799;1269;22987;-75
2023/03/28 02:14:46;;;;;;;7.70;4.90;;;;;;;0.93;65.22;100000.44;109713;1270;24414;-77
2023/03/28 02:17:47;;;;;;;7.00;4.60;;;;;;;0.95;65.22;99997.53;109556;1270;21989;-75
2023/03/28 02:20:44;;;;;;;8.70;4.80;;;;;;;0.93;65.43;99994.27;109638;1270;21975;-76
2023/03/28 02:23:47;;;;;;;5.60;4.30;;;;;;;0.92;65.55;99993.60;109050;1274;22014;-75
2023/03/28 02:26:58;;;;;;;5.90;4.20;;;;;;;0.92;65.62;99992.91;109252;1272;21984;-75
2023/03/28 02:29:53;;;;;;;6.00;4.70;;;;;;;0.92;65.69;99996.34;108980;1277;22000;-78
2023/03/28 02:32:39;;;;;;;7.00;4.60;;;;;;;0.91;65.71;99997.03;108962;1277;22031;-78
2023/03/28 02:35:26;;;;;;;5.60;3.90;;;;;;;0.91;65.77;99994.46;109008;1272;21983;-75
2023/03/28 02:38:34;;;;;;;5.10;4.20;;;;;;;0.91;65.83;99992.41;109645;1270;22139;-76
2023/03/28 02:42:17;;;;;;;7.70;3.80;;;;;;;0.88;65.94;99997.38;110076;1265;22982;-75
2023/03/28 02:45:28;;;;;;;7.10;4.10;;;;;;;0.85;66.10;99993.79;110115;1264;23638;-77
2023/03/28 02:48:31;;;;;;;7.90;4.00;;;;;;;0.88;66.26;99991.55;110421;1260;25003;-76
2023/03/28 02:51:35;;;;;;;9.20;4.10;;;;;;;0.93;66.41;99998.56;110692;1260;23790;-76
2023/03/28 02:54:42;;;;;;;7.30;4.10;;;;;;;0.98;66.37;99992.71;110692;1260;21988;-77
2023/03/28 02:57:58;;;;;;;5.40;3.90;;;;;;;1.03;66.54;99988.92;110661;1260;22079;-76
2023/03/28 03:00:43;;;;;;;6.90;4.00;;;;;;;1.06;66.62;99987.70;110678;1260;21957;-78
2023/03/28 03:03:22;;;;;;;8.40;4.60;;;;;;;1.09;66.48;99985.98;110718;1260;23703;-76
2023/03/28 03:06:07;;;;;;;6.60;3.80;;;;;;;1.11;66.40;99989.05;110475;1260;24283;-77
2023/03/28 03:08:50;;;;;;;6.10;3.50;;;;;;;1.14;66.36;99990.58;110656;1253;23088;-77
2023/03/28 03:11:30;;;;;;;7.10;3.50;;;;;;;1.16;66.46;99994.70;110673;1260;22004;-76
2023/03/28 03:14:05;;;;;;;6.40;3.40;;;;;;;1.18;66.50;99989.52;111027;1254;22103;-78
2023/03/28 03:16:47;;;;;;;4.20;2.90;;;;;;;1.19;66.43;99988.33;111108;1254;23707;-77
2023/03/28 03:19:23;;;;;;;4.30;3.10;;;;;;;1.20;66.41;99992.61;111294;1254;22018;-76
2023/03/28 03:22:06;;;;;;;4.50;3.10;;;;;;;1.22;66.45;99992.77;111191;1254;21977;-75
2023/03/28 03:25:05;;;;;;;6.10;3.20;;;;;;;1.23;66.43;99992.60;111136;1254;23071;-77
2023/03/28 03:27:47;;;;;;;7.00;4.10;;;;;;;1.22;66.33;99994.48;111222;1254;21956;-75
2023/03/28 03:30:37;;;;;;;6.40;3.80;;;;;;;1.23;66.30;100002.38;110934;1255;21960;-77
2023/03/28 03:33:40;;;;;;;6.40;3.80;;;;;;;1.23;66.28;100003.56;111252;1255;21953;-76
2023/03/28 03:36:22;;;;;;;5.40;3.90;;;;;;;1.24;66.17;100004.08;111174;1255;21997;-75
2023/03/28 03:39:00;;;;;;;4.70;2.90;;;;;;;1.24;66.09;100005.62;111048;1255;23451;-76
2023/03/28 03:41:36;;;;;;;5.40;3.10;;;;;;;1.23;65.98;100014.36;110983;1255;23721;-75
2023/03/28 03:44:08;;;;;;;5.60;2.90;;;;;;;1.21;65.89;100023.80;111195;1256;21970;-76
2023/03/28 03:46:45;;;;;;;5.20;3.20;;;;;;;1.19;65.85;100023.28;110848;1256;21971;-77
2023/03/28 03:49:22;;;;;;;4.50;2.80;;;;;;;1.15;65.68;100027.08;110823;1254;22796;-76
2023/03/28 03:51:55;;;;;;;4.60;2.60;;;;;;;1.11;65.69;100029.33;110707;1259;21958;-76
2023/03/28 03:54:36;;;;;;;7.40;3.30;;;;;;;1.11;65.71;100029.16;110551;1259;21996;-77
2023/03/28 03:57:07;;;;;;;3.60;2.40;;;;;;;1.10;65.70;100032.08;110660;1259;23063;-76
2023/03/28 03:59:56;;;;;;;4.10;2.70;;;;;;;1.11;65.64;100032.23;110732;1259;21996;-77
2023/03/28 04:02:28;;;;;;;5.00;2.80;;;;;;;1.11;65.53;100034.82;110813;1259;22967;-75
2023/03/28 04:05:07;;;;;;;7.40;2.40;;;;;;;1.10;65.46;100035.67;110179;1266;21990;-76
2023/03/28 04:07:47;;;;;;;4.50;2.50;;;;;;;1.07;65.29;100034.32;110063;1266;22652;-76
2023/03/28 04:10:33;;;;;;;6.10;2.80;;;;;;;1.02;65.15;100042.56;110263;1252;21964;-76
2023/03/28 04:13:10;;;;;;;4.00;2.40;;;;;;;0.99;64.99;100037.61;110392;1264;21965;-75
2023/03/28 04:15:44;;;;;;;8.80;3.00;;;;;;;0.95;64.73;100034.54;109843;1269;22060;-76
2023/03/28 04:18:32;;;;;;;4.40;2.40;;;;;;;0.90;64.57;100028.56;109817;1269;21983;-76
2023/03/28 04:21:30;;;;;;;3.80;2.90;;;;;;;0.88;64.52;100030.09;109986;1268;22735;-75
2023/03/28 04:24:19;;;;;;;3.50;3.10;;;;;;;0.85;64.44;100037.83;109824;1268;23033;-76
2023/03/28 04:27:24;;;;;;;4.00;2.70;;;;;;;0.83;64.51;100044.67;109983;1267;23612;-75
2023/03/28 04:30:11;;;;;;;7.90;3.20;;;;;;;0.87;64.54;100048.61;110036;1263;21965;-77
2023/03/28 04:33:13;;;;;;;7.30;3.80;;;;;;;0.87;64.51;100052.54;110214;1256;23705;-77
2023/03/28 04:35:58;;;;;;;4.90;2.90;;;;;;;0.88;64.53;100059.39;110745;1261;21996;-77
2023/03/28 04:38:39;;;;;;;8.70;3.90;;;;;;;0.89;64.44;100059.56;110475;1261;22947;-78
2023/03/28 04:41:25;;;;;;;6.20;2.70;;;;;;;0.87;64.34;100060.93;110769;1260;22913;-75
2023/03/28 04:44:09;;;;;;;5.20;3.00;;;;;;;0.84;64.31;100065.41;110687;1261;21965;-78
2023/03/28 04:47:07;;;;;;;5.40;3.10;;;;;;;0.82;64.38;100073.13;110639;1261;21969;-77
2023/03/28 04:49:51;;;;;;;;;;;;;;;0.85;64.34;100076.38;110572;1261;22085;-76
2023/03/28 04:52:36;;;;;;;3.80;2.80;;;;;;;0.78;64.44;100087.52;110054;1256;23049;-76
2023/03/28 04:55:13;;;;;;;3.80;2.60;;;;;;;0.76;64.36;100083.75;110556;1262;23630;-76
2023/03/28 04:57:58;;;;;;;4.30;2.90;;;;;;;0.76;64.33;100082.73;110617;1262;22539;-76
2023/03/28 05:00:33;;;;;;;8.40;4.60;;;;;;;0.78;64.27;100086.33;110495;1262;21957;-78
2023/03/28 05:04:01;;;;;;;3.20;2.30;;;;;;;0.79;64.35;100084.27;110675;1262;22433;-76
2023/03/28 05:06:37;;;;;;;4.90;2.40;;;;;;;0.79;64.03;100088.89;109608;1268;23617;-76
2023/03/28 05:09:22;;;;;;;4.20;2.40;;;;;;;0.81;63.96;100099.17;109804;1267;23732;-76
2023/03/28 05:12:11;;;;;;;4.80;2.30;;;;;;;0.78;63.88;100105.34;110409;1259;21964;-75
2023/03/28 05:14:59;;;;;;;5.30;3.90;;;;;;;0.68;63.91;100106.88;109877;1268;23710;-76
2023/03/28 05:17:35;;;;;;;7.10;3.10;;;;;;;0.58;64.09;100115.98;109602;1267;24323;-75
2023/03/28 05:20:38;;;;;;;6.00;3.20;;;;;;;0.40;64.14;100116.52;110031;1267;21972;-75
2023/03/28 05:23:18;;;;;;;5.90;3.40;;;;;;;0.25;64.65;100117.52;109782;1267;23693;-78
2023/03/28 05:26:15;;;;;;;5.40;3.10;;;;;;;0.16;65.01;100118.55;110415;1261;23605;-77
2023/03/28 05:28:55;;;;;;;6.60;3.30;;;;;;;0.11;65.63;100118.03;110584;1257;21988;-78
2023/03/28 05:31:29;;;;;;;5.20;3.50;;;;;;;0.13;66.11;100119.75;110436;1261;23020;-78
2023/03/28 05:34:14;;;;;;;5.40;3.60;;;;;;;0.13;66.36;100125.73;110447;1261;21962;-77
2023/03/28 05:36:55;;;;;;;4.30;3.10;;;;;;;0.10;66.54;100139.77;110611;1261;21969;-76
2023/03/28 05:39:38;;;;;;;5.00;3.60;;;;;;;0.07;66.84;100139.07;110813;1256;23581;-77
2023/03/28 05:42:23;;;;;;;5.10;3.50;;;;;;;0.07;67.20;100146.93;110730;1262;21974;-77
2023/03/28 05:45:00;;;;;;;6.20;3.70;;;;;;;0.05;67.50;100151.04;110444;1261;23052;-77
2023/03/28 05:47:54;;;;;;;5.00;4.10;;;;;;;0.06;67.58;100159.27;110695;1261;23681;-77
2023/03/28 05:50:35;;;;;;;6.10;3.30;;;;;;;0.08;67.74;100164.23;110607;1257;24268;-82
2023/03/28 05:53:20;;;;;;;5.00;3.40;;;;;;;0.13;67.80;100169.03;110047;1265;23784;-76
2023/03/28 05:55:54;;;;;;;5.60;3.70;;;;;;;0.17;67.79;100168.70;109612;1269;22812;-78
2023/03/28 05:58:33;;;;;;;6.50;4.00;;;;;;;0.21;67.76;100176.73;109079;1274;21999;-79
2023/03/28 06:01:11;;;;;;;5.20;3.50;;;;;;;0.26;67.78;100178.80;109455;1269;22758;-76
2023/03/28 06:03:41;;;;;;;7.90;3.20;;;;;;;0.32;67.62;100186.52;109722;1269;21982;-77
2023/03/28 06:06:20;;;;;;;6.20;3.80;;;;;;;0.37;67.71;100189.27;109696;1269;22379;-78
2023/03/28 06:09:01;;;;;;;6.90;4.00;;;;;;;0.47;67.80;100200.40;109591;1269;22177;-77
2023/03/28 06:11:44;;;;;;;4.40;3.40;;;;;;;0.58;67.66;100201.77;109870;1267;22042;-79
2023/03/28 06:14:13;;;;;;;4.50;3.00;;;;;;;0.70;67.53;100207.77;110385;1261;21936;-78
2023/03/28 06:16:48;;;;;;;3.80;2.70;;;;;;;0.84;67.28;100209.83;110970;1255;21957;-78
2023/03/28 06:19:35;;;;;;;5.00;2.60;;;;;;;0.99;67.17;100218.55;111135;1255;21943;-76
2023/03/28 06:22:09;;;;;;;3.70;2.70;;;;;;;1.17;67.19;100227.29;110954;1255;23609;-78
2023/03/28 06:24:52;;;;;;;4.10;2.90;;;;;;;1.34;66.89;100236.69;111457;1255;21967;-75
2023/03/28 06:27:35;;;;;;;7.00;2.70;;;;;;;1.63;67.49;100244.67;110517;1262;22166;-73
2023/03/28 06:30:08;;;;;;;3.90;2.80;;;;;;;2.03;67.43;100244.17;110152;1266;23749;-75
2023/03/28 06:32:51;;;;;;;;;;;;;;;2.42;66.85;100247.58;109619;1271;21978;-75
2023/03/28 06:35:27;;;;;;;4.50;2.40;;;;;;;2.47;65.25;100254.42;109528;1271;23609;-77
2023/03/28 06:38:02;;;;;;;3.10;2.30;;;;;;;2.38;64.37;100258.42;109496;1271;23433;-77
2023/03/28 06:40:37;;;;;;;4.90;3.20;;;;;;;2.38;64.46;100262.38;109047;1276;23063;-79
2023/03/28 06:43:15;;;;;;;3.70;2.70;;;;;;;2.42;64.10;100268.55;109133;1275;21991;-76
2023/03/28 06:46:17;;;;;;;;;;;;;;;2.45;63.65;100276.41;108920;1275;21976;-78
2023/03/28 06:48:50;;;;;;;4.10;2.80;;;;;;;2.34;63.28;100279.23;109480;1273;21978;-79
2023/03/28 06:51:26;;;;;;;3.50;3.00;;;;;;;2.31;63.15;100280.44;109806;1268;21971;-77
2023/03/28 06:54:03;;;;;;;4.90;3.10;;;;;;;2.29;62.69;100290.41;109764;1268;21992;-78
2023/03/28 06:56:35;;;;;;;8.10;5.30;;;;;;;2.28;62.78;100293.67;109893;1268;23695;-79
2023/03/28 06:59:29;;;;;;;5.10;4.60;;;;;;;2.45;63.38;100299.25;110127;1268;22115;-78
2023/03/28 07:02:11;;;;;;;6.60;6.00;;;;;;;2.63;62.58;100308.44;110015;1262;22274;-80
2023/03/28 07:04:48;;;;;;;4.50;2.70;;;;;;;2.59;61.85;100315.34;110702;1256;22315;-78
2023/03/28 07:07:30;;;;;;;4.70;2.80;;;;;;;2.70;62.24;100319.57;111369;1254;21964;-78
2023/03/28 07:10:04;;;;;;;4.20;2.80;;;;;;;2.82;61.64;100323.27;110580;1261;22100;-77
2023/03/28 07:12:41;;;;;;;;;;;;;;;2.77;60.75;100326.73;110695;1261;21948;-77
2023/03/28 07:15:14;;;;;;;4.70;3.40;;;;;;;2.72;61.51;100336.73;110753;1261;21992;-78
2023/03/28 07:18:00;;;;;;;4.10;2.90;;;;;;;2.87;61.57;100341.98;110852;1261;21964;-78
2023/03/28 07:20:34;;;;;;;4.60;2.50;;;;;;;3.06;61.25;100352.16;110736;1261;21972;-80
2023/03/28 07:23:14;;;;;;;4.20;3.30;;;;;;;3.11;59.99;100358.83;110826;1261;22437;-77
2023/03/28 07:25:44;;;;;;;5.40;3.50;;;;;;;3.07;60.01;100360.58;110313;1261;21951;-79
2023/03/28 07:28:19;;;;;;;7.80;4.10;;;;;;;3.23;60.56;100360.28;110784;1261;23096;-78
2023/03/28 07:31:00;;;;;;;4.90;3.00;;;;;;;3.62;61.03;100364.44;110582;1261;22887;-80
2023/03/28 07:33:33;;;;;;;5.20;2.70;;;;;;;3.97;60.57;100375.29;110461;1261;21965;-78
2023/03/28 07:36:20;;;;;;;4.80;2.50;;;;;;;4.28;59.70;100380.83;110641;1262;21960;-79
2023/03/28 07:39:12;;;;;;;4.40;2.90;;;;;;;4.52;58.96;100378.63;109901;1267;23125;-80
2023/03/28 07:42:00;;;;;;;4.70;2.30;;;;;;;4.77;57.78;100385.89;110159;1267;21970;-76
2023/03/28 07:44:35;;;;;;;5.70;2.60;;;;;;;4.82;56.58;100390.66;110324;1262;21980;-79
2023/03/28 07:47:08;;;;;;;7.40;3.20;;;;;;;4.80;56.02;100394.30;109560;1271;23603;-79
2023/03/28 07:49:41;;;;;;;3.40;2.40;;;;;;;4.85;55.45;100401.30;109519;1270;23734;-80
2023/03/28 07:52:12;;;;;;;3.80;2.10;;;;;;;4.83;54.82;100405.30;109802;1270;23599;-79
2023/03/28 07:54:43;;;;;;;4.20;2.30;;;;;;;4.81;54.84;100405.33;110045;1267;21981;-79
2023/03/28 07:57:19;;;;;;;4.90;2.80;;;;;;;4.87;54.69;100408.86;110316;1261;21958;-79
2023/03/28 08:00:07;;;;;;;4.00;2.30;;;;;;;4.99;54.24;100419.22;110801;1247;23021;-80
2023/03/28 08:02:46;;;;;;;4.80;2.70;;;;;;;4.96;53.48;100425.46;110949;1260;23686;-79
2023/03/28 08:05:17;;;;;;;4.10;2.10;;;;;;;4.86;53.24;100432.15;110973;1255;21951;-79
2023/03/28 08:07:51;;;;;;;4.90;2.60;;;;;;;4.78;52.97;100433.30;111008;1255;22956;-81
2023/03/28 08:10:27;;;;;;;5.00;2.40;;;;;;;4.85;53.32;100434.77;111343;1255;22807;-78
2023/03/28 08:13:20;;;;;;;4.50;2.50;;;;;;;4.87;52.40;100445.08;111247;1255;23680;-78
2023/03/28 08:16:00;;;;;;;5.40;2.70;;;;;;;4.68;51.66;100448.41;111090;1255;23090;-79
2023/03/28 08:18:33;;;;;;;5.70;2.40;;;;;;;4.65;52.25;100448.28;111208;1255;23704;-78
2023/03/28 08:21:06;;;;;;;3.00;1.70;;;;;;;4.82;52.23;100454.96;111208;1255;23014;-79
2023/03/28 08:23:39;;;;;;;6.80;1.80;;;;;;;4.98;51.75;100459.60;111016;1255;23021;-78
2023/03/28 08:26:28;;;;;;;3.60;1.80;;;;;;;5.13;51.38;100469.05;111224;1256;22025;-78
2023/03/28 08:29:04;;;;;;;4.90;2.30;;;;;;;5.22;50.65;100470.31;110987;1256;21957;-78
2023/03/28 08:31:37;;;;;;;8.20;3.00;;;;;;;5.30;50.83;100470.55;110870;1260;21999;-79
2023/03/28 08:34:17;;;;;;;7.10;2.80;;;;;;;5.44;50.14;100467.41;110815;1260;21991;-83
2023/03/28 08:36:53;;;;;;;5.70;2.30;;;;;;;5.69;50.25;100473.41;110938;1260;23055;-79
2023/03/28 08:39:32;;;;;;;5.20;2.10;;;;;;;6.03;49.24;100473.24;110229;1265;21996;-77
2023/03/28 08:42:55;;;;;;;4.20;2.50;;;;;;;6.28;48.53;100469.52;109920;1264;21943;-78
2023/03/28 08:45:47;;;;;;;4.00;1.80;;;;;;;6.11;46.88;100477.92;109551;1272;21961;-80
2023/03/28 08:48:30;;;;;;;6.30;2.10;;;;;;;5.66;46.03;100484.00;109567;1272;21982;-78
2023/03/28 08:51:26;;;;;;;5.30;2.00;;;;;;;5.26;46.17;100482.85;109551;1270;22203;-79
2023/03/28 08:54:22;;;;;;;5.00;2.00;;;;;;;5.29;47.31;100484.19;109823;1270;22198;-79
2023/03/28 08:57:05;;;;;;;5.80;3.50;;;;;;;5.36;47.21;100485.64;109394;1271;23078;-78
2023/03/28 09:00:11;;;;;;;5.40;2.90;;;;;;;5.29;47.00;100489.36;109252;1271;23601;-79
2023/03/28 09:02:46;;;;;;;5.60;2.40;;;;;;;5.10;47.17;100491.69;109303;1271;23711;-80
2023/03/28 09:05:49;;;;;;;5.10;2.90;;;;;;;4.96;47.49;100492.23;109548;1271;22019;-77
2023/03/28 09:08:43;;;;;;;5.80;3.40;;;;;;;5.32;48.26;100492.44;109505;1259;23057;-81
2023/03/28 09:11:59;;;;;;;7.30;3.90;;;;;;;5.88;48.23;100492.47;110527;1266;22732;-79
2023/03/28 09:15:11;;;;;;;4.50;2.50;;;;;;;6.20;47.14;100491.61;109759;1268;23759;-79
2023/03/28 09:18:50;;;;;;;4.60;2.00;;;;;;;6.38;46.55;100497.69;109927;1268;21969;-78
2023/03/28 09:21:51;;;;;;;5.20;2.10;;;;;;;6.24;45.63;100495.70;110287;1265;23751;-79
2023/03/28 09:25:31;;;;;;;7.10;3.20;;;;;;;5.75;44.95;100504.58;110113;1261;22004;-79
2023/03/28 09:28:43;;;;;;;8.10;2.60;;;;;;;5.21;44.76;100519.14;109650;1270;23806;-79
2023/03/28 09:32:10;;;;;;;4.90;3.40;;;;;;;4.64;45.22;100526.73;109941;1270;22437;-80
2023/03/28 09:35:01;;;;;;;7.20;5.60;;;;;;;4.07;46.16;100536.03;109179;1275;21985;-79
2023/03/28 09:38:01;;;;;;;6.90;4.20;;;;;;;3.60;47.45;100539.81;109164;1271;22008;-80
2023/03/28 09:41:03;;;;;;;3.40;2.90;;;;;;;3.24;48.80;100541.20;109027;1276;22299;-79
2023/03/28 09:44:03;;;;;;;4.80;2.80;;;;;;;3.13;50.20;100540.06;109070;1276;22025;-80
2023/03/28 09:47:14;;;;;;;3.30;2.00;;;;;;;3.02;51.36;100533.06;109110;1276;23803;-80
2023/03/28 09:50:21;;;;;;;7.20;2.50;;;;;;;3.37;53.30;100526.35;109885;1270;21988;-81
2023/03/28 09:53:16;;;;;;;8.00;2.90;;;;;;;3.79;53.28;100526.61;110280;1264;22417;-81
2023/03/28 09:56:35;;;;;;;5.80;1.90;;;;;;;4.01;52.89;100526.79;110378;1264;22027;-79
2023/03/28 09:59:44;;;;;;;5.90;2.70;;;;;;;4.26;52.54;100531.75;109942;1271;21987;-79
2023/03/28 10:02:38;;;;;;;4.40;2.70;;;;;;;4.34;52.09;100533.73;109752;1271;21999;-80
2023/03/28 10:05:42;;;;;;;5.40;3.00;;;;;;;4.31;51.43;100532.73;109804;1271;22067;-79
2023/03/28 10:08:41;;;;;;;9.90;3.50;;;;;;;4.16;51.48;100553.02;109298;1276;21987;-79
2023/03/28 10:11:26;;;;;;;5.10;2.90;;;;;;;3.91;51.37;100565.09;109634;1271;22139;-79
2023/03/28 10:13:59;;;;;;;2.80;2.20;;;;;;;3.50;51.54;100573.61;109318;1271;21986;-78
2023/03/28 10:16:35;;;;;;;4.40;2.00;;;;;;;3.15;52.28;100583.56;109224;1271;23049;-76
2023/03/28 10:19:25;;;;;;;3.00;2.20;;;;;;;2.89;53.44;100589.48;109124;1276;23637;-82
2023/03/28 10:22:31;;;;;;;2.60;2.00;;;;;;;2.51;54.11;100599.69;109314;1276;22997;-84
2023/03/28 10:25:19;;;;;;;7.90;3.50;;;;;;;2.04;54.85;100612.73;109336;1270;21948;-83
2023/03/28 10:27:59;;;;;;;2.60;2.30;;;;;;;1.59;55.75;100619.66;109554;1269;22003;-80
2023/03/28 10:30:56;;;;;;;2.60;2.00;;;;;;;1.14;56.54;100626.34;109289;1275;22065;-81
2023/03/28 10:33:53;;;;;;;3.50;1.90;;;;;;;0.89;57.92;100617.63;109105;1275;21981;-78
2023/03/28 10:37:03;;;;;;;3.20;1.80;;;;;;;1.11;60.22;100601.63;109704;1263;21982;-77
2023/03/28 10:40:26;;;;;;;3.50;1.80;;;;;;;1.46;60.96;100599.55;110648;1263;22152;-80
2023/03/28 10:43:13;;;;;;;4.00;2.80;;;;;;;1.70;60.89;100608.38;109779;1269;23038;-78
2023/03/28 10:46:36;;;;;;;3.50;2.00;;;;;;;1.96;61.16;100613.93;109809;1268;21959;-83
2023/03/28 10:49:24;;;;;;;3.50;2.50;;;;;;;2.29;61.45;100620.98;110421;1262;24275;-79
2023/03/28 10:52:47;;;;;;;6.30;3.30;;;;;;;2.82;61.86;100626.97;110586;1262;22286;-79
2023/03/28 10:55:40;;;;;;;4.60;2.80;;;;;;;3.23;60.90;100635.13;110230;1267;21972;-79
2023/03/28 10:58:59;;;;;;;4.10;2.70;;;;;;;3.57;60.57;100640.67;109932;1266;21952;-78
2023/03/28 11:01:58;;;;;;;3.40;2.80;;;;;;;3.83;59.38;100642.28;110769;1262;22707;-79
2023/03/28 11:05:27;;;;;;;4.70;3.20;;;;;;;3.90;57.99;100643.61;110744;1262;23030;-79
2023/03/28 11:08:22;;;;;;;4.60;2.70;;;;;;;3.63;56.81;100642.02;110791;1262;21969;-80
2023/03/28 11:11:47;;;;;;;4.20;3.20;;;;;;;3.15;55.91;100633.42;110916;1262;23693;-79
2023/03/28 11:15:15;;;;;;;3.20;2.50;;;;;;;2.89;56.49;100638.83;110142;1267;22285;-82
2023/03/28 11:18:14;;;;;;;5.40;3.00;;;;;;;2.91;57.13;100637.27;109625;1274;22004;-82
2023/03/28 11:21:17;;;;;;;4.60;3.10;;;;;;;3.13;57.68;100640.84;109468;1273;22001;-82
2023/03/28 11:24:16;;;;;;;5.10;3.60;;;;;;;3.41;57.64;100639.71;109380;1274;22440;-80
2023/03/28 11:27:33;;;;;;;3.90;2.90;;;;;;;3.68;57.47;100634.95;109440;1274;21974;-84
2023/03/28 11:30:55;;;;;;;4.50;2.70;;;;;;;3.89;56.83;100634.84;109413;1274;21987;-79
2023/03/28 11:34:33;;;;;;;5.10;2.90;;;;;;;4.06;56.41;100642.99;110649;1263;21968;-81
2023/03/28 11:37:25;;;;;;;4.00;3.20;;;;;;;4.03;55.47;100647.33;110838;1262;23663;-82
2023/03/28 11:40:41;;;;;;;4.30;3.00;;;;;;;3.86;54.74;100650.69;110544;1262;22002;-81
2023/03/28 11:44:07;;;;;;;5.90;2.90;;;;;;;3.65;54.81;100645.64;110043;1268;23089;-79
2023/03/28 11:46:50;;;;;;;6.10;3.60;;;;;;;3.52;55.05;100645.52;110191;1267;22095;-79
2023/03/28 11:49:35;;;;;;;7.40;3.80;;;;;;;3.44;55.08;100655.19;110024;1267;21996;-78
2023/03/28 11:52:27;;;;;;;6.10;4.00;;;;;;;3.42;55.21;100651.25;109815;1267;23711;-79
2023/03/28 11:55:28;;;;;;;9.80;4.00;;;;;;;3.43;55.38;100647.96;110169;1264;22041;-79
2023/03/28 11:58:20;;;;;;;4.10;2.70;;;;;;;3.55;55.70;100650.16;110482;1264;21965;-79
2023/03/28 12:01:14;;;;;;;5.30;2.90;;;;;;;3.66;55.13;100647.35;110778;1264;23690;-80
2023/03/28 12:04:29;;;;;;;5.60;3.50;;;;;;;3.63;54.05;100659.59;110520;1264;23025;-79
2023/03/28 12:07:31;;;;;;;3.70;2.60;;;;;;;3.26;53.01;100669.17;110435;1264;22087;-79
2023/03/28 12:10:48;;;;;;;4.80;2.90;;;;;;;2.94;53.52;100674.23;110284;1264;22979;-80
2023/03/28 12:14:01;;;;;;;5.40;3.20;;;;;;;2.76;53.86;100674.93;109912;1270;21967;-80
2023/03/28 12:17:02;;;;;;;3.70;2.40;;;;;;;2.76;54.40;100677.86;109823;1270;22019;-78
2023/03/28 12:19:40;;;;;;;5.40;3.70;;;;;;;2.81;54.25;100670.30;109243;1270;22482;-79
2023/03/28 12:22:43;;;;;;;9.10;5.50;;;;;;;2.89;54.41;100666.15;109698;1270;22174;-79
2023/03/28 12:26:00;;;;;;;12.60;5.50;;;;;;;2.99;54.46;100668.20;110113;1270;23713;-78
2023/03/28 12:28:43;;;;;;;7.60;3.90;;;;;;;3.13;54.43;100668.52;109597;1270;23798;-79
2023/03/28 12:31:46;;;;;;;7.90;4.20;;;;;;;3.25;53.93;100678.64;109558;1270;23131;-79
2023/03/28 12:34:39;;;;;;;6.30;2.60;;;;;;;3.30;53.35;100680.87;109797;1270;22153;-80
2023/03/28 12:37:40;;;;;;;6.90;2.00;;;;;;;3.27;52.41;100682.95;109759;1264;23710;-80
2023/03/28 12:40:30;;;;;;;4.20;2.00;;;;;;;3.15;51.66;100682.11;110709;1263;21827;-79
2023/03/28 12:43:06;;;;;;;4.00;2.60;;;;;;;3.03;51.37;100690.39;110222;1264;21992;-80
2023/03/28 12:46:07;;;;;;;2.60;2.20;;;;;;;2.92;51.11;100689.70;110466;1262;22773;-79
2023/03/28 12:49:18;;;;;;;3.20;2.40;;;;;;;2.86;51.13;100694.87;110457;1264;21961;-79
2023/03/28 12:52:06;;;;;;;7.70;4.00;;;;;;;2.76;51.04;100703.11;111541;1255;23053;-82
2023/03/28 12:55:02;;;;;;;7.60;3.90;;;;;;;2.69;51.30;100706.38;111122;1260;21962;-80
2023/03/28 12:57:47;;;;;;;9.30;3.70;;;;;;;2.59;51.29;100715.14;110028;1265;22455;-78
2023/03/28 13:01:06;;;;;;;3.90;2.20;;;;;;;2.35;51.53;100719.92;110536;1265;23762;-81
2023/03/28 13:04:15;;;;;;;5.30;2.50;;;;;;;2.20;52.26;100717.32;110449;1265;22491;-78
2023/03/28 13:07:55;;;;;;;7.20;3.60;;;;;;;2.22;53.50;100718.52;110185;1269;23794;-82
2023/03/28 13:11:05;;;;;;;9.40;3.70;;;;;;;2.37;53.94;100713.92;110052;1269;24419;-82
2023/03/28 13:14:10;;;;;;;5.00;3.00;;;;;;;2.57;54.22;100718.40;110442;1265;21969;-84
2023/03/28 13:17:16;;;;;;;7.10;3.70;;;;;;;2.75;53.88;100719.45;110678;1261;22763;-82